Valenco Di Mare — PB5336 — position and weather

sailwx.info

Track history (hours):
 
Tides and Currents Weather Stations Pressure Air Temp Water Temp Dewpoint Dewpoint Depression Visibility Wind Speed Wind Dir Waves Ship Positions

Valenco Di Mare

Last reported at 2018-Jul-20 13:59 UTC. Time now 2018-Jul-20 14:04 UTC.
Position N 38°55' E 001°27'.

Length 13 m.

Type: Pleasure craft. MMSI: 244670450.

Date/timePositionNaut miles runAvg speedWind from/ knotsBaromVisibWave heightAir tempDewpointWater temp
2018-Jul-20 13:59N 38°55' E 001°27'0 0.0
2018-Jul-20 13:26N 38°55' E 001°27'0 0.5
2018-Jul-20 12:59N 38°55' E 001°28'0 0.1
2018-Jul-20 12:29N 38°55' E 001°28'0 0.0
2018-Jul-20 11:56N 38°55' E 001°28'0 0.0
2018-Jul-20 11:29N 38°55' E 001°28'0 0.1
2018-Jul-20 10:59N 38°55' E 001°28'0 0.0
2018-Jul-20 10:23N 38°55' E 001°28'0 0.0
2018-Jul-20 09:59N 38°55' E 001°28'0 0.1
2018-Jul-20 09:30N 38°55' E 001°28'610.8
2018-Jul-20 08:59N 38°49' E 001°26'612.5
2018-Jul-20 08:29N 38°51' E 001°18'  
2018-Jul-17 15:46N 38°45' E 001°26'0 0.1
2018-Jul-17 14:15N 38°45' E 001°26'0 0.0
2018-Jul-17 13:54N 38°45' E 001°26'0 0.0
2018-Jul-17 13:17N 38°45' E 001°26'3 7.1
2018-Jul-17 12:55N 38°48' E 001°25'817.8
2018-Jul-17 12:29N 38°54' E 001°30'7118.4
2018-Jul-17 08:38N 39°44' E 002°35'215.7
2018-Jul-17 08:30N 39°46' E 002°37'4 0.2
2018-Jul-16 14:15N 39°48' E 002°42'7 0.8
2018-Jul-16 06:03N 39°44' E 002°34'114.6
2018-Jul-16 06:00N 39°45' E 002°35'2214.6
2018-Jul-16 04:31N 40°00' E 002°55'115.2
2018-Jul-16 04:28N 40°01' E 002°55'12714.6
2018-Jul-15 19:46N 41°36' E 004°46'714.3
2018-Jul-15 19:17N 41°41' E 004°52'514.2
2018-Jul-15 18:56N 41°45' E 004°56'2614.4
2018-Jul-15 17:06N 42°05' E 005°20'214.4
2018-Jul-15 17:00N 42°06' E 005°21'5814.3
2018-Jul-15 12:57N 42°50' E 006°13'714.7
2018-Jul-15 12:28N 42°55' E 006°19'10 7.6
2018-Jul-15 11:12N 43°03' E 006°27'315.1
2018-Jul-15 11:01N 43°05' E 006°30'815.0
2018-Jul-15 10:30N 43°09' E 006°39'2414.8
2018-Jul-15 08:53N 43°29' E 006°58'511.8
2018-Jul-15 08:29N 43°33' E 007°01'0 0.0
2018-Jul-15 04:34N 43°33' E 007°01'0 0.0
2018-Jul-15 04:25N 43°33' E 007°01'0 0.0
2018-Jul-15 03:58N 43°33' E 007°01'0 0.0
2018-Jul-15 03:28N 43°33' E 007°01'0 0.0
2018-Jul-15 02:49N 43°33' E 007°01'0 0.0
2018-Jul-15 02:10N 43°33' E 007°01'0 0.0
2018-Jul-15 01:40N 43°33' E 007°01'0 0.0
2018-Jul-15 01:25N 43°33' E 007°01'0 0.0
2018-Jul-15 00:58N 43°33' E 007°01'0 0.0
2018-Jul-15 00:28N 43°33' E 007°01'0 0.0
2018-Jul-14 23:49N 43°33' E 007°01'0 0.0
2018-Jul-14 23:25N 43°33' E 007°01'0 0.0
2018-Jul-14 22:58N 43°33' E 007°01'0 0.0
2018-Jul-14 18:08N 43°33' E 007°01'0 0.0
2018-Jul-14 17:59N 43°33' E 007°01'2 4.6
2018-Jul-14 17:30N 43°31' E 007°02'0 0.0
2018-Jul-14 17:00N 43°31' E 007°02'0 0.0
2018-Jul-14 16:30N 43°31' E 007°02'0 0.0
2018-Jul-14 16:00N 43°31' E 007°02'0 0.0
2018-Jul-14 15:30N 43°31' E 007°02'0 0.1
2018-Jul-14 15:00N 43°31' E 007°02'0 0.0
2018-Jul-14 14:27N 43°31' E 007°02'2 2.3
2018-Jul-14 13:29N 43°33' E 007°01'0 0.0
2018-Jul-14 12:59N 43°33' E 007°01'0 0.0
2018-Jul-14 12:28N 43°33' E 007°01'0 0.0
2018-Jul-14 12:00N 43°33' E 007°01'0 0.0
2018-Jul-14 11:29N 43°33' E 007°01'0 0.0
2018-Jul-14 11:00N 43°33' E 007°01'0 0.0
2018-Jul-14 10:30N 43°33' E 007°01'0 0.0
2018-Jul-14 09:59N 43°33' E 007°01'0 0.0
2018-Jul-14 09:29N 43°33' E 007°01'0 0.0
2018-Jul-14 09:00N 43°33' E 007°01'0 0.0
2018-Jul-14 08:30N 43°33' E 007°01'0 0.0
2018-Jul-14 08:00N 43°33' E 007°01'0 0.0
2018-Jul-14 07:29N 43°33' E 007°01'0 0.0
2018-Jul-14 07:00N 43°33' E 007°01'0 0.0
2018-Jul-14 06:30N 43°33' E 007°01'0 0.0
2018-Jul-14 06:00N 43°33' E 007°01'0 0.0
2018-Jul-14 05:30N 43°33' E 007°01'0 0.0
2018-Jul-14 05:00N 43°33' E 007°01'0 0.0
2018-Jul-14 04:30N 43°33' E 007°01'0 0.0
2018-Jul-14 04:00N 43°33' E 007°01'0 0.0
2018-Jul-14 03:30N 43°33' E 007°01'0 0.0
2018-Jul-14 02:59N 43°33' E 007°01'0 0.0
2018-Jul-14 02:30N 43°33' E 007°01'0 0.0
2018-Jul-14 02:00N 43°33' E 007°01'0 0.0
2018-Jul-14 01:30N 43°33' E 007°01'0 0.0
2018-Jul-14 01:00N 43°33' E 007°01'0 0.0
2018-Jul-14 00:30N 43°33' E 007°01'0 0.0
2018-Jul-14 00:00N 43°33' E 007°01'0 0.0
2018-Jul-13 23:30N 43°33' E 007°01'0 0.0
2018-Jul-13 23:00N 43°33' E 007°01'0 0.0
2018-Jul-13 22:30N 43°33' E 007°01'0 0.0
2018-Jul-13 22:00N 43°33' E 007°01'0 0.0
2018-Jul-13 21:30N 43°33' E 007°01'0 0.0
2018-Jul-13 21:00N 43°33' E 007°01'0 0.0
2018-Jul-13 20:30N 43°33' E 007°01'0 0.0
2018-Jul-13 20:00N 43°33' E 007°01'0 0.0
2018-Jul-13 19:30N 43°33' E 007°01'0 0.0
2018-Jul-13 19:00N 43°33' E 007°01'0 0.0
2018-Jul-13 18:29N 43°33' E 007°01'0 0.0
2018-Jul-13 17:57N 43°33' E 007°01'0 0.0
2018-Jul-13 17:30N 43°33' E 007°01'2 4.7
2018-Jul-13 17:01N 43°31' E 007°02'0 0.1
2018-Jul-13 16:30N 43°31' E 007°02'0 0.0
2018-Jul-13 16:00N 43°31' E 007°02'0 0.0
2018-Jul-13 15:30N 43°31' E 007°02'0 0.0
2018-Jul-13 15:00N 43°31' E 007°02'0 0.0
2018-Jul-13 14:00N 43°31' E 007°02'0 0.0
2018-Jul-13 13:30N 43°31' E 007°02'1 1.6
2018-Jul-13 13:00N 43°30' E 007°01'22 1.1
2018-Jul-12 17:38N 43°16' E 006°38'0 0.6
2018-Jul-12 17:30N 43°16' E 006°38'3 7.0
2018-Jul-12 17:00N 43°17' E 006°43'14 2.0
2018-Jul-12 10:03N 43°25' E 006°58'114.4
2018-Jul-12 10:01N 43°26' E 006°59'814.7
2018-Jul-12 09:29N 43°31' E 007°07'17 0.8
2018-Jul-11 13:07N 43°43' E 007°24'215.2
2018-Jul-11 13:00N 43°43' E 007°27'4815.3
2018-Jul-11 09:53N 44°04' E 008°26'616.2
2018-Jul-11 09:31N 44°07' E 008°33'815.9
2018-Jul-11 09:00N 44°12' E 008°42'815.5
2018-Jul-11 08:30N 44°15' E 008°52'815.4
2018-Jul-11 08:00N 44°16' E 009°02'714.1
2018-Jul-11 07:30N 44°17' E 009°12'1 2.9
2018-Jul-11 07:01N 44°18' E 009°13'0 0.0
2018-Jul-10 17:13N 44°18' E 009°13'0 1.0
2018-Jul-10 17:00N 44°18' E 009°13'2 3.6
2018-Jul-10 16:28N 44°19' E 009°10'0 0.4
2018-Jul-10 16:01N 44°19' E 009°10'0 0.1
2018-Jul-10 15:30N 44°19' E 009°10'0 0.4
2018-Jul-10 15:01N 44°19' E 009°10'0 0.2
2018-Jul-10 14:25N 44°19' E 009°10'614.5
2018-Jul-10 14:00N 44°15' E 009°17'815.7
2018-Jul-10 13:30N 44°11' E 009°27'  
Track history (hours):
 
Tides and Currents Weather Stations Pressure Air Temp Water Temp Dewpoint Dewpoint Depression Visibility Wind Speed Wind Dir Waves Ship Positions

Valenco Di Mare

Last reported at 2018-Jul-20 13:59 UTC. Time now 2018-Jul-20 14:04 UTC.
Position N 38°55' E 001°27'.

Length 13 m.

Type: Pleasure craft. MMSI: 244670450.

Date/timePositionNaut miles runAvg speedWind from/ knotsBaromVisibWave heightAir tempDewpointWater temp
2018-Jul-20 13:59N 38°55' E 001°27'0 0.0
2018-Jul-20 13:26N 38°55' E 001°27'0 0.5
2018-Jul-20 12:59N 38°55' E 001°28'0 0.1
2018-Jul-20 12:29N 38°55' E 001°28'0 0.0
2018-Jul-20 11:56N 38°55' E 001°28'0 0.0
2018-Jul-20 11:29N 38°55' E 001°28'0 0.1
2018-Jul-20 10:59N 38°55' E 001°28'0 0.0
2018-Jul-20 10:23N 38°55' E 001°28'0 0.0
2018-Jul-20 09:59N 38°55' E 001°28'0 0.1
2018-Jul-20 09:30N 38°55' E 001°28'610.8
2018-Jul-20 08:59N 38°49' E 001°26'612.5
2018-Jul-20 08:29N 38°51' E 001°18'  
2018-Jul-17 15:46N 38°45' E 001°26'0 0.1
2018-Jul-17 14:15N 38°45' E 001°26'0 0.0
2018-Jul-17 13:54N 38°45' E 001°26'0 0.0
2018-Jul-17 13:17N 38°45' E 001°26'3 7.1
2018-Jul-17 12:55N 38°48' E 001°25'817.8
2018-Jul-17 12:29N 38°54' E 001°30'7118.4
2018-Jul-17 08:38N 39°44' E 002°35'215.7
2018-Jul-17 08:30N 39°46' E 002°37'4 0.2
2018-Jul-16 14:15N 39°48' E 002°42'7 0.8
2018-Jul-16 06:03N 39°44' E 002°34'114.6
2018-Jul-16 06:00N 39°45' E 002°35'2214.6
2018-Jul-16 04:31N 40°00' E 002°55'115.2
2018-Jul-16 04:28N 40°01' E 002°55'12714.6
2018-Jul-15 19:46N 41°36' E 004°46'714.3
2018-Jul-15 19:17N 41°41' E 004°52'514.2
2018-Jul-15 18:56N 41°45' E 004°56'2614.4
2018-Jul-15 17:06N 42°05' E 005°20'214.4
2018-Jul-15 17:00N 42°06' E 005°21'5814.3
2018-Jul-15 12:57N 42°50' E 006°13'714.7
2018-Jul-15 12:28N 42°55' E 006°19'10 7.6
2018-Jul-15 11:12N 43°03' E 006°27'315.1
2018-Jul-15 11:01N 43°05' E 006°30'815.0
2018-Jul-15 10:30N 43°09' E 006°39'2414.8
2018-Jul-15 08:53N 43°29' E 006°58'511.8
2018-Jul-15 08:29N 43°33' E 007°01'0 0.0
2018-Jul-15 04:34N 43°33' E 007°01'0 0.0
2018-Jul-15 04:25N 43°33' E 007°01'0 0.0
2018-Jul-15 03:58N 43°33' E 007°01'0 0.0
2018-Jul-15 03:28N 43°33' E 007°01'0 0.0
2018-Jul-15 02:49N 43°33' E 007°01'0 0.0
2018-Jul-15 02:10N 43°33' E 007°01'0 0.0
2018-Jul-15 01:40N 43°33' E 007°01'0 0.0
2018-Jul-15 01:25N 43°33' E 007°01'0 0.0
2018-Jul-15 00:58N 43°33' E 007°01'0 0.0
2018-Jul-15 00:28N 43°33' E 007°01'0 0.0
2018-Jul-14 23:49N 43°33' E 007°01'0 0.0
2018-Jul-14 23:25N 43°33' E 007°01'0 0.0
2018-Jul-14 22:58N 43°33' E 007°01'0 0.0
2018-Jul-14 18:08N 43°33' E 007°01'0 0.0
2018-Jul-14 17:59N 43°33' E 007°01'2 4.6
2018-Jul-14 17:30N 43°31' E 007°02'0 0.0
2018-Jul-14 17:00N 43°31' E 007°02'0 0.0
2018-Jul-14 16:30N 43°31' E 007°02'0 0.0
2018-Jul-14 16:00N 43°31' E 007°02'0 0.0
2018-Jul-14 15:30N 43°31' E 007°02'0 0.1
2018-Jul-14 15:00N 43°31' E 007°02'0 0.0
2018-Jul-14 14:27N 43°31' E 007°02'2 2.3
2018-Jul-14 13:29N 43°33' E 007°01'0 0.0
2018-Jul-14 12:59N 43°33' E 007°01'0 0.0
2018-Jul-14 12:28N 43°33' E 007°01'0 0.0
2018-Jul-14 12:00N 43°33' E 007°01'0 0.0
2018-Jul-14 11:29N 43°33' E 007°01'0 0.0
2018-Jul-14 11:00N 43°33' E 007°01'0 0.0
2018-Jul-14 10:30N 43°33' E 007°01'0 0.0
2018-Jul-14 09:59N 43°33' E 007°01'0 0.0
2018-Jul-14 09:29N 43°33' E 007°01'0 0.0
2018-Jul-14 09:00N 43°33' E 007°01'0 0.0
2018-Jul-14 08:30N 43°33' E 007°01'0 0.0
2018-Jul-14 08:00N 43°33' E 007°01'0 0.0
2018-Jul-14 07:29N 43°33' E 007°01'0 0.0
2018-Jul-14 07:00N 43°33' E 007°01'0 0.0
2018-Jul-14 06:30N 43°33' E 007°01'0 0.0
2018-Jul-14 06:00N 43°33' E 007°01'0 0.0
2018-Jul-14 05:30N 43°33' E 007°01'0 0.0
2018-Jul-14 05:00N 43°33' E 007°01'0 0.0
2018-Jul-14 04:30N 43°33' E 007°01'0 0.0
2018-Jul-14 04:00N 43°33' E 007°01'0 0.0
2018-Jul-14 03:30N 43°33' E 007°01'0 0.0
2018-Jul-14 02:59N 43°33' E 007°01'0 0.0
2018-Jul-14 02:30N 43°33' E 007°01'0 0.0
2018-Jul-14 02:00N 43°33' E 007°01'0 0.0
2018-Jul-14 01:30N 43°33' E 007°01'0 0.0
2018-Jul-14 01:00N 43°33' E 007°01'0 0.0
2018-Jul-14 00:30N 43°33' E 007°01'0 0.0
2018-Jul-14 00:00N 43°33' E 007°01'0 0.0
2018-Jul-13 23:30N 43°33' E 007°01'0 0.0
2018-Jul-13 23:00N 43°33' E 007°01'0 0.0
2018-Jul-13 22:30N 43°33' E 007°01'0 0.0
2018-Jul-13 22:00N 43°33' E 007°01'0 0.0
2018-Jul-13 21:30N 43°33' E 007°01'0 0.0
2018-Jul-13 21:00N 43°33' E 007°01'0 0.0
2018-Jul-13 20:30N 43°33' E 007°01'0 0.0
2018-Jul-13 20:00N 43°33' E 007°01'0 0.0
2018-Jul-13 19:30N 43°33' E 007°01'0 0.0
2018-Jul-13 19:00N 43°33' E 007°01'0 0.0
2018-Jul-13 18:29N 43°33' E 007°01'0 0.0
2018-Jul-13 17:57N 43°33' E 007°01'0 0.0
2018-Jul-13 17:30N 43°33' E 007°01'2 4.7
2018-Jul-13 17:01N 43°31' E 007°02'0 0.1
2018-Jul-13 16:30N 43°31' E 007°02'0 0.0
2018-Jul-13 16:00N 43°31' E 007°02'0 0.0
2018-Jul-13 15:30N 43°31' E 007°02'0 0.0
2018-Jul-13 15:00N 43°31' E 007°02'0 0.0
2018-Jul-13 14:00N 43°31' E 007°02'0 0.0
2018-Jul-13 13:30N 43°31' E 007°02'1 1.6
2018-Jul-13 13:00N 43°30' E 007°01'22 1.1
2018-Jul-12 17:38N 43°16' E 006°38'0 0.6
2018-Jul-12 17:30N 43°16' E 006°38'3 7.0
2018-Jul-12 17:00N 43°17' E 006°43'14 2.0
2018-Jul-12 10:03N 43°25' E 006°58'114.4
2018-Jul-12 10:01N 43°26' E 006°59'814.7
2018-Jul-12 09:29N 43°31' E 007°07'17 0.8
2018-Jul-11 13:07N 43°43' E 007°24'215.2
2018-Jul-11 13:00N 43°43' E 007°27'4815.3
2018-Jul-11 09:53N 44°04' E 008°26'616.2
2018-Jul-11 09:31N 44°07' E 008°33'815.9
2018-Jul-11 09:00N 44°12' E 008°42'815.5
2018-Jul-11 08:30N 44°15' E 008°52'815.4
2018-Jul-11 08:00N 44°16' E 009°02'714.1
2018-Jul-11 07:30N 44°17' E 009°12'1 2.9
2018-Jul-11 07:01N 44°18' E 009°13'0 0.0
2018-Jul-10 17:13N 44°18' E 009°13'0 1.0
2018-Jul-10 17:00N 44°18' E 009°13'2 3.6
2018-Jul-10 16:28N 44°19' E 009°10'0 0.4
2018-Jul-10 16:01N 44°19' E 009°10'0 0.1
2018-Jul-10 15:30N 44°19' E 009°10'0 0.4
2018-Jul-10 15:01N 44°19' E 009°10'0 0.2
2018-Jul-10 14:25N 44°19' E 009°10'614.5
2018-Jul-10 14:00N 44°15' E 009°17'815.7
2018-Jul-10 13:30N 44°11' E 009°27'  

Dump ship's entire track history